sensor_id;sensor_type;location;lat;lon;timestamp;P1;durP1;ratioP1;P2;durP2;ratioP2
33760;SDS011;20084;47.912;19.044;2023-03-01T11:09:44;6.05;;;4.22;;
33760;SDS011;20084;47.912;19.044;2023-03-01T11:12:13;4.80;;;4.30;;
33760;SDS011;20084;47.912;19.044;2023-03-01T11:14:50;6.32;;;4.95;;
33760;SDS011;20084;47.912;19.044;2023-03-01T15:17:33;4.85;;;3.60;;
33760;SDS011;20084;47.912;19.044;2023-03-01T15:20:04;3.85;;;3.10;;
33760;SDS011;20084;47.912;19.044;2023-03-01T15:22:43;3.40;;;2.00;;
33760;SDS011;20084;47.912;19.044;2023-03-01T15:25:23;3.85;;;1.08;;
33760;SDS011;20084;47.912;19.044;2023-03-01T15:27:51;2.78;;;1.38;;
33760;SDS011;20084;47.912;19.044;2023-03-01T15:30:26;2.28;;;1.10;;
33760;SDS011;20084;47.912;19.044;2023-03-01T15:35:44;4.13;;;1.13;;
33760;SDS011;20084;47.912;19.044;2023-03-01T15:43:49;2.30;;;1.02;;
33760;SDS011;20084;47.912;19.044;2023-03-01T15:46:16;6.68;;;1.25;;
33760;SDS011;20084;47.912;19.044;2023-03-01T15:48:49;2.88;;;1.02;;
33760;SDS011;20084;47.912;19.044;2023-03-01T15:51:34;2.53;;;1.10;;
33760;SDS011;20084;47.912;19.044;2023-03-01T15:54:06;3.42;;;1.58;;
33760;SDS011;20084;47.912;19.044;2023-03-01T15:56:42;4.82;;;1.40;;
33760;SDS011;20084;47.912;19.044;2023-03-01T15:59:09;4.65;;;1.42;;
33760;SDS011;20084;47.912;19.044;2023-03-01T16:01:38;3.75;;;1.30;;
33760;SDS011;20084;47.912;19.044;2023-03-01T16:04:04;1.35;;;1.08;;
33760;SDS011;20084;47.912;19.044;2023-03-01T16:06:30;3.55;;;1.40;;
33760;SDS011;20084;47.912;19.044;2023-03-01T16:08:56;4.75;;;1.50;;
33760;SDS011;20084;47.912;19.044;2023-03-01T16:11:22;2.67;;;1.20;;
33760;SDS011;20084;47.912;19.044;2023-03-01T16:13:48;4.10;;;1.30;;
33760;SDS011;20084;47.912;19.044;2023-03-01T16:16:15;10.07;;;1.17;;
33760;SDS011;20084;47.912;19.044;2023-03-01T16:18:42;4.82;;;1.10;;
33760;SDS011;20084;47.912;19.044;2023-03-01T16:21:18;3.58;;;1.42;;
33760;SDS011;20084;47.912;19.044;2023-03-01T16:23:47;6.93;;;1.58;;
33760;SDS011;20084;47.912;19.044;2023-03-01T16:26:14;4.90;;;2.33;;
33760;SDS011;20084;47.912;19.044;2023-03-01T16:28:41;5.75;;;2.75;;
33760;SDS011;20084;47.912;19.044;2023-03-01T16:31:07;4.65;;;2.72;;
33760;SDS011;20084;47.912;19.044;2023-03-01T16:33:34;3.60;;;2.10;;
33760;SDS011;20084;47.912;19.044;2023-03-01T16:36:10;5.30;;;1.73;;
33760;SDS011;20084;47.912;19.044;2023-03-01T16:38:37;3.92;;;2.17;;
33760;SDS011;20084;47.912;19.044;2023-03-01T16:41:04;4.20;;;1.90;;
33760;SDS011;20084;47.912;19.044;2023-03-01T16:43:31;5.90;;;1.95;;
33760;SDS011;20084;47.912;19.044;2023-03-01T16:45:58;5.55;;;2.53;;
33760;SDS011;20084;47.912;19.044;2023-03-01T16:48:24;7.22;;;2.75;;
33760;SDS011;20084;47.912;19.044;2023-03-01T16:50:59;3.83;;;2.58;;
33760;SDS011;20084;47.912;19.044;2023-03-01T16:53:28;7.47;;;4.15;;
33760;SDS011;20084;47.912;19.044;2023-03-01T16:55:55;4.57;;;2.70;;
33760;SDS011;20084;47.912;19.044;2023-03-01T16:58:22;10.80;;;3.55;;
33760;SDS011;20084;47.912;19.044;2023-03-01T17:00:50;7.00;;;2.92;;
33760;SDS011;20084;47.912;19.044;2023-03-01T17:03:18;4.53;;;2.40;;
33760;SDS011;20084;47.912;19.044;2023-03-01T17:05:48;4.75;;;1.73;;
33760;SDS011;20084;47.912;19.044;2023-03-01T17:08:15;2.33;;;1.40;;
33760;SDS011;20084;47.912;19.044;2023-03-01T17:10:41;3.25;;;1.50;;
33760;SDS011;20084;47.912;19.044;2023-03-01T17:13:07;2.72;;;2.30;;
33760;SDS011;20084;47.912;19.044;2023-03-01T17:15:34;4.75;;;2.25;;
33760;SDS011;20084;47.912;19.044;2023-03-01T17:18:03;2.65;;;1.40;;
33760;SDS011;20084;47.912;19.044;2023-03-01T17:20:29;2.33;;;1.45;;
33760;SDS011;20084;47.912;19.044;2023-03-01T17:22:55;7.25;;;1.67;;
33760;SDS011;20084;47.912;19.044;2023-03-01T17:25:21;4.38;;;1.60;;
33760;SDS011;20084;47.912;19.044;2023-03-01T17:27:47;10.30;;;2.25;;
33760;SDS011;20084;47.912;19.044;2023-03-01T17:30:13;3.17;;;1.40;;
33760;SDS011;20084;47.912;19.044;2023-03-01T17:32:39;4.00;;;1.42;;
33760;SDS011;20084;47.912;19.044;2023-03-01T17:35:05;4.05;;;2.45;;
33760;SDS011;20084;47.912;19.044;2023-03-01T17:37:32;5.13;;;3.20;;
33760;SDS011;20084;47.912;19.044;2023-03-01T17:39:58;7.32;;;3.95;;
33760;SDS011;20084;47.912;19.044;2023-03-01T17:42:24;8.05;;;4.78;;
33760;SDS011;20084;47.912;19.044;2023-03-01T17:44:50;3.60;;;2.60;;
33760;SDS011;20084;47.912;19.044;2023-03-01T17:47:15;7.70;;;4.63;;
33760;SDS011;20084;47.912;19.044;2023-03-01T17:49:41;9.05;;;1.90;;
33760;SDS011;20084;47.912;19.044;2023-03-01T17:52:07;5.88;;;3.25;;
33760;SDS011;20084;47.912;19.044;2023-03-01T17:54:33;4.65;;;1.77;;
33760;SDS011;20084;47.912;19.044;2023-03-01T17:56:59;4.20;;;1.38;;
33760;SDS011;20084;47.912;19.044;2023-03-01T17:59:25;2.28;;;1.60;;
33760;SDS011;20084;47.912;19.044;2023-03-01T18:01:56;4.85;;;1.58;;
33760;SDS011;20084;47.912;19.044;2023-03-01T18:04:22;4.90;;;1.85;;
33760;SDS011;20084;47.912;19.044;2023-03-01T18:06:48;1.95;;;1.27;;
33760;SDS011;20084;47.912;19.044;2023-03-01T18:09:14;1.52;;;1.20;;
33760;SDS011;20084;47.912;19.044;2023-03-01T18:11:41;2.22;;;1.67;;
33760;SDS011;20084;47.912;19.044;2023-03-01T18:14:08;2.33;;;1.90;;
33760;SDS011;20084;47.912;19.044;2023-03-01T18:16:34;4.97;;;1.60;;
33760;SDS011;20084;47.912;19.044;2023-03-01T18:19:00;3.75;;;1.65;;
33760;SDS011;20084;47.912;19.044;2023-03-01T18:21:27;1.92;;;1.25;;
33760;SDS011;20084;47.912;19.044;2023-03-01T18:23:54;3.53;;;1.70;;
33760;SDS011;20084;47.912;19.044;2023-03-01T18:26:20;4.70;;;1.90;;
33760;SDS011;20084;47.912;19.044;2023-03-01T18:28:49;8.00;;;2.30;;
33760;SDS011;20084;47.912;19.044;2023-03-01T18:31:17;9.48;;;3.15;;
33760;SDS011;20084;47.912;19.044;2023-03-01T18:33:46;15.43;;;8.18;;
33760;SDS011;20084;47.912;19.044;2023-03-01T18:36:31;24.20;;;11.65;;
33760;SDS011;20084;47.912;19.044;2023-03-01T18:39:00;15.82;;;7.85;;
33760;SDS011;20084;47.912;19.044;2023-03-01T18:41:28;10.55;;;5.35;;
33760;SDS011;20084;47.912;19.044;2023-03-01T18:43:55;5.43;;;3.03;;
33760;SDS011;20084;47.912;19.044;2023-03-01T18:46:21;3.30;;;2.25;;
33760;SDS011;20084;47.912;19.044;2023-03-01T18:48:47;3.47;;;1.75;;
33760;SDS011;20084;47.912;19.044;2023-03-01T18:51:22;3.80;;;1.88;;
33760;SDS011;20084;47.912;19.044;2023-03-01T18:53:53;2.70;;;1.52;;
33760;SDS011;20084;47.912;19.044;2023-03-01T18:56:20;5.22;;;1.50;;
33760;SDS011;20084;47.912;19.044;2023-03-01T18:58:45;2.65;;;1.52;;
33760;SDS011;20084;47.912;19.044;2023-03-01T19:01:15;3.92;;;1.80;;
33760;SDS011;20084;47.912;19.044;2023-03-01T19:03:45;3.45;;;1.55;;
33760;SDS011;20084;47.912;19.044;2023-03-01T19:06:13;5.90;;;3.20;;
33760;SDS011;20084;47.912;19.044;2023-03-01T19:08:39;6.15;;;3.80;;
33760;SDS011;20084;47.912;19.044;2023-03-01T19:11:06;6.53;;;3.85;;
33760;SDS011;20084;47.912;19.044;2023-03-01T19:13:34;4.32;;;2.00;;
33760;SDS011;20084;47.912;19.044;2023-03-01T19:16:06;2.47;;;1.70;;
33760;SDS011;20084;47.912;19.044;2023-03-01T19:18:34;3.15;;;1.50;;
33760;SDS011;20084;47.912;19.044;2023-03-01T19:21:04;4.18;;;2.55;;
33760;SDS011;20084;47.912;19.044;2023-03-01T19:23:31;5.13;;;3.28;;
33760;SDS011;20084;47.912;19.044;2023-03-01T19:26:09;4.95;;;3.03;;
33760;SDS011;20084;47.912;19.044;2023-03-01T19:28:36;6.40;;;3.42;;
33760;SDS011;20084;47.912;19.044;2023-03-01T19:31:07;9.68;;;5.75;;
33760;SDS011;20084;47.912;19.044;2023-03-01T19:33:35;14.40;;;8.95;;
33760;SDS011;20084;47.912;19.044;2023-03-01T19:36:04;26.38;;;12.23;;
33760;SDS011;20084;47.912;19.044;2023-03-01T19:38:32;16.02;;;10.15;;
33760;SDS011;20084;47.912;19.044;2023-03-01T19:41:02;10.60;;;6.57;;
33760;SDS011;20084;47.912;19.044;2023-03-01T19:43:33;28.02;;;13.38;;
33760;SDS011;20084;47.912;19.044;2023-03-01T19:46:00;6.95;;;4.25;;
33760;SDS011;20084;47.912;19.044;2023-03-01T19:48:26;14.32;;;8.52;;
33760;SDS011;20084;47.912;19.044;2023-03-01T19:50:53;21.30;;;12.63;;
33760;SDS011;20084;47.912;19.044;2023-03-01T19:53:19;11.45;;;6.93;;
33760;SDS011;20084;47.912;19.044;2023-03-01T19:55:46;5.53;;;3.50;;
33760;SDS011;20084;47.912;19.044;2023-03-01T19:58:16;3.88;;;2.47;;
33760;SDS011;20084;47.912;19.044;2023-03-01T20:00:43;2.30;;;1.60;;
33760;SDS011;20084;47.912;19.044;2023-03-01T20:03:11;3.88;;;1.73;;
33760;SDS011;20084;47.912;19.044;2023-03-01T20:05:38;2.00;;;1.60;;
33760;SDS011;20084;47.912;19.044;2023-03-01T20:08:05;1.92;;;1.63;;
33760;SDS011;20084;47.912;19.044;2023-03-01T20:10:33;3.05;;;1.80;;
33760;SDS011;20084;47.912;19.044;2023-03-01T20:13:00;3.05;;;2.30;;
33760;SDS011;20084;47.912;19.044;2023-03-01T20:15:27;5.40;;;3.05;;
33760;SDS011;20084;47.912;19.044;2023-03-01T20:17:55;7.53;;;4.22;;
33760;SDS011;20084;47.912;19.044;2023-03-01T20:20:21;7.35;;;3.78;;
33760;SDS011;20084;47.912;19.044;2023-03-01T20:22:47;9.52;;;5.60;;
33760;SDS011;20084;47.912;19.044;2023-03-01T20:25:13;13.75;;;8.95;;
33760;SDS011;20084;47.912;19.044;2023-03-01T20:27:43;14.88;;;9.60;;
33760;SDS011;20084;47.912;19.044;2023-03-01T20:30:12;11.75;;;7.53;;
33760;SDS011;20084;47.912;19.044;2023-03-01T20:32:39;11.93;;;8.27;;
33760;SDS011;20084;47.912;19.044;2023-03-01T20:35:06;12.30;;;7.53;;
33760;SDS011;20084;47.912;19.044;2023-03-01T20:37:32;8.32;;;3.97;;
33760;SDS011;20084;47.912;19.044;2023-03-01T20:39:59;8.00;;;5.57;;
33760;SDS011;20084;47.912;19.044;2023-03-01T20:42:26;2.03;;;1.85;;
33760;SDS011;20084;47.912;19.044;2023-03-01T20:44:52;8.52;;;3.85;;
33760;SDS011;20084;47.912;19.044;2023-03-01T20:47:18;2.20;;;2.00;;
33760;SDS011;20084;47.912;19.044;2023-03-01T20:49:48;6.20;;;3.50;;
33760;SDS011;20084;47.912;19.044;2023-03-01T20:52:16;4.65;;;1.73;;
33760;SDS011;20084;47.912;19.044;2023-03-01T20:54:42;4.22;;;2.80;;
33760;SDS011;20084;47.912;19.044;2023-03-01T20:57:08;10.18;;;4.22;;
33760;SDS011;20084;47.912;19.044;2023-03-01T20:59:34;6.75;;;4.35;;
33760;SDS011;20084;47.912;19.044;2023-03-01T21:02:00;11.98;;;6.90;;
33760;SDS011;20084;47.912;19.044;2023-03-01T21:04:26;29.50;;;14.25;;
33760;SDS011;20084;47.912;19.044;2023-03-01T21:06:52;33.90;;;19.27;;
33760;SDS011;20084;47.912;19.044;2023-03-01T21:09:17;35.22;;;20.83;;
33760;SDS011;20084;47.912;19.044;2023-03-01T21:11:43;44.47;;;27.00;;
33760;SDS011;20084;47.912;19.044;2023-03-01T21:14:09;31.70;;;19.85;;
33760;SDS011;20084;47.912;19.044;2023-03-01T21:16:36;25.33;;;15.50;;
33760;SDS011;20084;47.912;19.044;2023-03-01T21:19:02;20.65;;;12.27;;
33760;SDS011;20084;47.912;19.044;2023-03-01T21:21:31;35.08;;;19.20;;
33760;SDS011;20084;47.912;19.044;2023-03-01T21:23:57;22.08;;;12.90;;
33760;SDS011;20084;47.912;19.044;2023-03-01T21:26:24;21.25;;;11.98;;
33760;SDS011;20084;47.912;19.044;2023-03-01T21:28:58;19.10;;;10.82;;
33760;SDS011;20084;47.912;19.044;2023-03-01T21:31:34;20.85;;;10.85;;
33760;SDS011;20084;47.912;19.044;2023-03-01T21:34:04;16.75;;;9.98;;
33760;SDS011;20084;47.912;19.044;2023-03-01T21:36:30;16.48;;;10.10;;
33760;SDS011;20084;47.912;19.044;2023-03-01T21:38:57;20.15;;;11.05;;
33760;SDS011;20084;47.912;19.044;2023-03-01T21:41:29;15.05;;;8.43;;
33760;SDS011;20084;47.912;19.044;2023-03-01T21:43:57;7.32;;;3.92;;
33760;SDS011;20084;47.912;19.044;2023-03-01T21:46:28;7.20;;;4.38;;
33760;SDS011;20084;47.912;19.044;2023-03-01T21:48:56;8.52;;;4.45;;
33760;SDS011;20084;47.912;19.044;2023-03-01T21:51:23;9.85;;;5.03;;
33760;SDS011;20084;47.912;19.044;2023-03-01T21:53:50;9.05;;;4.70;;
33760;SDS011;20084;47.912;19.044;2023-03-01T21:56:19;7.72;;;4.50;;
33760;SDS011;20084;47.912;19.044;2023-03-01T21:58:46;10.35;;;4.80;;
33760;SDS011;20084;47.912;19.044;2023-03-01T22:01:14;7.70;;;4.47;;
33760;SDS011;20084;47.912;19.044;2023-03-01T22:03:41;7.50;;;5.07;;
33760;SDS011;20084;47.912;19.044;2023-03-01T22:06:17;7.65;;;4.75;;
33760;SDS011;20084;47.912;19.044;2023-03-01T22:08:48;10.60;;;5.63;;
33760;SDS011;20084;47.912;19.044;2023-03-01T22:11:14;8.38;;;5.50;;
33760;SDS011;20084;47.912;19.044;2023-03-01T22:13:43;10.80;;;6.78;;
33760;SDS011;20084;47.912;19.044;2023-03-01T22:16:10;13.55;;;6.68;;
33760;SDS011;20084;47.912;19.044;2023-03-01T22:18:35;28.45;;;15.98;;
33760;SDS011;20084;47.912;19.044;2023-03-01T22:21:02;21.00;;;10.40;;
33760;SDS011;20084;47.912;19.044;2023-03-01T22:23:29;12.65;;;8.18;;
33760;SDS011;20084;47.912;19.044;2023-03-01T22:25:56;7.28;;;4.88;;
33760;SDS011;20084;47.912;19.044;2023-03-01T22:28:21;8.07;;;4.55;;
33760;SDS011;20084;47.912;19.044;2023-03-01T22:30:47;6.53;;;4.28;;
33760;SDS011;20084;47.912;19.044;2023-03-01T22:33:13;7.68;;;4.75;;
33760;SDS011;20084;47.912;19.044;2023-03-01T22:35:41;7.72;;;4.65;;
33760;SDS011;20084;47.912;19.044;2023-03-01T22:38:07;7.72;;;4.13;;
33760;SDS011;20084;47.912;19.044;2023-03-01T22:40:34;6.28;;;4.28;;
33760;SDS011;20084;47.912;19.044;2023-03-01T22:42:59;5.82;;;4.40;;
33760;SDS011;20084;47.912;19.044;2023-03-01T22:45:28;9.75;;;5.30;;
33760;SDS011;20084;47.912;19.044;2023-03-01T22:47:56;10.38;;;5.88;;
33760;SDS011;20084;47.912;19.044;2023-03-01T22:50:27;17.42;;;10.95;;
33760;SDS011;20084;47.912;19.044;2023-03-01T22:52:53;33.08;;;19.55;;
33760;SDS011;20084;47.912;19.044;2023-03-01T22:55:19;24.27;;;14.85;;
33760;SDS011;20084;47.912;19.044;2023-03-01T22:57:48;14.88;;;7.88;;
33760;SDS011;20084;47.912;19.044;2023-03-01T23:00:14;8.02;;;5.07;;
33760;SDS011;20084;47.912;19.044;2023-03-01T23:02:41;8.63;;;5.18;;
33760;SDS011;20084;47.912;19.044;2023-03-01T23:05:07;8.50;;;5.43;;
33760;SDS011;20084;47.912;19.044;2023-03-01T23:07:33;10.20;;;5.40;;
33760;SDS011;20084;47.912;19.044;2023-03-01T23:09:59;7.35;;;4.63;;
33760;SDS011;20084;47.912;19.044;2023-03-01T23:12:26;7.28;;;4.72;;
33760;SDS011;20084;47.912;19.044;2023-03-01T23:14:53;6.70;;;4.57;;
33760;SDS011;20084;47.912;19.044;2023-03-01T23:17:19;7.20;;;4.30;;
33760;SDS011;20084;47.912;19.044;2023-03-01T23:19:44;6.38;;;3.97;;
33760;SDS011;20084;47.912;19.044;2023-03-01T23:22:10;5.53;;;4.30;;
33760;SDS011;20084;47.912;19.044;2023-03-01T23:24:36;8.85;;;5.15;;
33760;SDS011;20084;47.912;19.044;2023-03-01T23:27:02;8.63;;;5.20;;
33760;SDS011;20084;47.912;19.044;2023-03-01T23:29:29;7.00;;;5.05;;
33760;SDS011;20084;47.912;19.044;2023-03-01T23:31:55;5.45;;;4.05;;
33760;SDS011;20084;47.912;19.044;2023-03-01T23:34:22;8.07;;;5.25;;
33760;SDS011;20084;47.912;19.044;2023-03-01T23:36:50;5.82;;;4.18;;
33760;SDS011;20084;47.912;19.044;2023-03-01T23:39:16;7.18;;;3.67;;
33760;SDS011;20084;47.912;19.044;2023-03-01T23:41:42;5.85;;;3.75;;
33760;SDS011;20084;47.912;19.044;2023-03-01T23:44:10;5.80;;;2.90;;
33760;SDS011;20084;47.912;19.044;2023-03-01T23:46:41;5.57;;;3.85;;
33760;SDS011;20084;47.912;19.044;2023-03-01T23:49:09;4.88;;;3.55;;
33760;SDS011;20084;47.912;19.044;2023-03-01T23:51:38;4.32;;;3.25;;
33760;SDS011;20084;47.912;19.044;2023-03-01T23:54:15;4.60;;;2.90;;
33760;SDS011;20084;47.912;19.044;2023-03-01T23:56:43;4.45;;;3.42;;
33760;SDS011;20084;47.912;19.044;2023-03-01T23:59:11;5.63;;;4.00;;
